createdAt,value
2018-11-02T00:00:19.443Z,79.76
2018-11-02T00:05:02.334Z,78.69
2018-11-02T00:09:48.969Z,78.05
2018-11-02T00:14:31.928Z,77.43
2018-11-02T00:19:19.775Z,77.50
2018-11-02T00:24:02.718Z,77.96
2018-11-02T00:28:46.862Z,78.70
2018-11-02T00:33:29.727Z,78.50
2018-11-02T00:38:13.811Z,78.73
2018-11-02T00:42:56.665Z,77.71
2018-11-02T00:47:41.275Z,79.22
2018-11-02T00:52:24.156Z,77.49
2018-11-02T00:57:08.126Z,76.85
2018-11-02T01:01:51.022Z,77.02
2018-11-02T01:06:38.203Z,78.07
2018-11-02T01:11:21.056Z,76.71
2018-11-02T01:16:04.087Z,77.48
2018-11-02T01:20:46.952Z,77.12
2018-11-02T01:25:30.066Z,76.87
2018-11-02T01:30:12.919Z,78.50
2018-11-02T01:34:55.810Z,77.17
2018-11-02T01:39:39.745Z,77.08
2018-11-02T01:44:22.650Z,77.64
2018-11-02T01:49:07.462Z,76.69
2018-11-02T01:55:19.817Z,77.22
2018-11-02T02:00:02.825Z,76.50
2018-11-02T02:04:45.690Z,77.89
2018-11-02T02:09:28.737Z,77.68
2018-11-02T02:14:11.615Z,77.35
2018-11-02T02:18:55.757Z,77.36
2018-11-02T02:23:38.648Z,78.34
2018-11-02T02:28:23.569Z,78.60
2018-11-02T02:33:06.470Z,77.54
2018-11-02T02:37:50.590Z,78.14
2018-11-02T02:42:33.475Z,77.59
2018-11-02T02:47:20.595Z,77.11
2018-11-02T02:52:03.474Z,78.18
2018-11-02T02:56:47.525Z,79.74
2018-11-02T03:01:30.418Z,78.96
2018-11-02T03:06:14.543Z,77.95
2018-11-02T03:10:57.565Z,77.58
2018-11-02T03:15:40.607Z,76.85
2018-11-02T03:20:23.465Z,77.64
2018-11-02T03:25:08.793Z,78.32
2018-11-02T03:29:51.689Z,77.43
2018-11-02T03:34:34.554Z,76.51
2018-11-02T03:39:20.829Z,77.07
2018-11-02T03:44:03.701Z,77.41
2018-11-02T03:48:50.443Z,78.07
2018-11-02T03:53:33.331Z,77.34
2018-11-02T03:58:17.297Z,76.88
2018-11-02T04:03:00.177Z,77.58
2018-11-02T04:07:46.360Z,77.43
2018-11-02T04:12:29.242Z,78.15
2018-11-02T04:17:15.617Z,77.59
2018-11-02T04:21:58.738Z,78.27
2018-11-02T04:26:45.599Z,78.66
2018-11-02T04:31:28.488Z,78.25
2018-11-02T04:36:12.646Z,77.04
2018-11-02T04:40:55.646Z,78.38
2018-11-02T04:45:39.877Z,77.56
2018-11-02T04:50:23.223Z,78.40
2018-11-02T04:55:07.329Z,77.79
2018-11-02T04:59:50.231Z,78.67
2018-11-02T05:04:33.107Z,79.43
2018-11-02T05:09:16.038Z,78.31
2018-11-02T05:13:58.922Z,79.55
2018-11-02T05:18:45.000Z,79.17
2018-11-02T05:23:27.922Z,79.09
2018-11-02T05:28:11.977Z,79.60
2018-11-02T05:32:54.883Z,79.39
2018-11-02T05:37:38.801Z,79.67
2018-11-02T05:42:21.685Z,80.87
2018-11-02T05:47:05.932Z,79.25
2018-11-02T05:51:48.851Z,79.00
2018-11-02T05:56:33.964Z,79.16
2018-11-02T06:01:16.892Z,79.23
2018-11-02T06:06:02.009Z,78.80
2018-11-02T06:10:44.917Z,78.09
2018-11-02T06:15:29.850Z,78.87
2018-11-02T06:20:12.759Z,77.41
2018-11-02T06:24:55.858Z,78.79
2018-11-02T06:29:38.733Z,77.89
2018-11-02T06:34:21.593Z,78.03
2018-11-02T06:39:06.906Z,76.57
2018-11-02T06:43:50.085Z,77.52
2018-11-02T06:48:35.093Z,76.55
2018-11-02T06:53:18.003Z,75.58
2018-11-02T06:58:02.934Z,76.38
2018-11-02T07:02:45.835Z,74.47
2018-11-02T07:07:29.011Z,75.24
2018-11-02T07:12:11.735Z,75.23
2018-11-02T07:16:55.723Z,74.78
2018-11-02T07:21:38.665Z,74.28
2018-11-02T07:26:21.755Z,73.87
2018-11-02T07:31:04.995Z,74.08
2018-11-02T07:35:47.947Z,75.16
2018-11-02T07:40:30.921Z,74.54
2018-11-02T07:45:15.387Z,74.83
2018-11-02T07:49:58.262Z,74.92
2018-11-02T07:54:41.286Z,74.81
2018-11-02T07:59:24.146Z,75.35
2018-11-02T08:04:07.040Z,75.05
2018-11-02T10:37:34.251Z,64.33
2018-11-02T10:42:18.478Z,64.77
2018-11-02T10:47:02.098Z,64.74
2018-11-02T10:51:46.048Z,64.37
2018-11-02T10:56:29.338Z,63.02
2018-11-02T11:01:18.704Z,62.74
2018-11-02T11:06:01.659Z,63.52
2018-11-02T11:10:44.572Z,62.85
2018-11-02T11:15:30.732Z,63.83
2018-11-02T11:20:14.095Z,63.69
2018-11-02T11:24:58.014Z,62.48
2018-11-02T11:29:40.945Z,62.58
2018-11-02T11:34:24.822Z,63.31
2018-11-02T11:39:10.670Z,63.97
2018-11-02T11:43:57.223Z,63.00
2018-11-02T11:48:40.133Z,64.12
2018-11-02T11:53:23.251Z,65.19
2018-11-02T11:58:06.284Z,63.98
2018-11-02T12:02:51.498Z,65.09
2018-11-02T12:07:34.478Z,63.39
2018-11-02T12:12:18.745Z,64.99
2018-11-02T12:17:01.692Z,65.59
2018-11-02T12:21:45.672Z,63.55
2018-11-02T12:26:28.619Z,63.03
2018-11-02T12:31:12.792Z,63.72
2018-11-02T12:35:55.826Z,64.81
2018-11-02T12:40:38.843Z,64.91
2018-11-02T12:45:22.290Z,63.56
2018-11-02T12:50:07.832Z,64.90
2018-11-02T12:54:50.685Z,65.35
2018-11-02T12:59:33.551Z,64.71
2018-11-02T13:04:17.490Z,65.26
2018-11-02T13:09:00.403Z,64.93
2018-11-02T13:13:44.298Z,64.43
2018-11-02T13:18:27.176Z,65.24
2018-11-02T13:23:10.371Z,65.01
2018-11-02T13:27:53.245Z,66.19
2018-11-02T13:32:38.584Z,67.28
2018-11-02T13:37:21.611Z,66.75
2018-11-02T13:42:06.760Z,66.93
2018-11-02T13:46:49.661Z,68.04
2018-11-02T13:51:32.819Z,67.48
2018-11-02T13:56:15.661Z,67.03
2018-11-02T14:01:02.068Z,67.82
2018-11-02T14:05:44.942Z,69.37
2018-11-02T14:10:27.812Z,70.31
2018-11-02T14:15:12.943Z,70.26
2018-11-02T14:19:55.818Z,70.05
2018-11-02T14:24:39.786Z,71.39
2018-11-02T14:38:21.648Z,70.52
2018-11-02T14:43:06.504Z,69.63
2018-11-02T14:47:49.465Z,69.67
2018-11-02T14:52:33.581Z,70.18
2018-11-02T14:57:16.455Z,68.90
2018-11-02T15:02:02.970Z,70.96
2018-11-02T15:06:45.858Z,70.65
2018-11-02T15:11:29.018Z,69.25
2018-11-02T15:16:11.932Z,69.78
2018-11-02T15:20:55.968Z,70.28
2018-11-02T15:25:38.839Z,69.10
2018-11-02T15:30:22.761Z,70.32
2018-11-02T15:35:06.650Z,70.63
2018-11-02T15:39:49.571Z,69.79
2018-11-02T15:44:34.662Z,70.08
2018-11-02T15:49:17.475Z,71.13
2018-11-02T15:54:02.582Z,70.72
2018-11-02T15:58:45.508Z,73.43
2018-11-02T16:03:31.926Z,72.92
2018-11-02T16:08:14.818Z,73.30
2018-11-02T16:12:59.772Z,73.95
2018-11-02T16:17:42.705Z,71.50
2018-11-02T16:22:26.805Z,71.36
2018-11-02T16:27:09.692Z,71.63
2018-11-02T16:31:55.873Z,73.07
2018-11-02T16:36:38.808Z,71.40
2018-11-02T16:41:22.931Z,73.19
2018-11-02T16:46:06.031Z,72.74
2018-11-02T16:50:48.939Z,73.23
2018-11-02T16:55:31.908Z,71.71
2018-11-02T17:00:17.434Z,71.94
2018-11-02T17:05:00.437Z,71.33
2018-11-02T17:09:43.302Z,71.23
2018-11-02T17:14:29.790Z,71.83
2018-11-02T17:19:12.908Z,72.07
2018-11-02T17:23:56.308Z,71.61
2018-11-02T17:28:39.219Z,72.08
2018-11-02T17:33:24.131Z,71.79
2018-11-02T17:38:07.048Z,72.76
2018-11-02T17:42:53.099Z,73.21
2018-11-02T17:47:37.788Z,72.68
2018-11-02T17:52:20.800Z,72.64
2018-11-02T17:57:04.560Z,72.05
2018-11-02T18:01:51.203Z,73.72
2018-11-02T18:06:34.736Z,71.86
2018-11-02T18:11:17.684Z,71.31
2018-11-02T18:16:00.592Z,72.04
2018-11-02T18:20:43.663Z,71.71
2018-11-02T18:25:26.566Z,73.02
2018-11-02T18:30:10.902Z,73.25
2018-11-02T18:34:54.237Z,73.20
2018-11-02T18:39:37.071Z,72.99
2018-11-02T18:44:21.160Z,72.75
2018-11-02T18:49:04.068Z,72.65
2018-11-02T18:53:47.958Z,73.22
2018-11-02T18:58:30.856Z,73.37
2018-11-02T19:03:14.988Z,72.21
2018-11-02T19:07:58.201Z,72.10
2018-11-02T19:12:42.995Z,74.01
2018-11-02T19:17:25.867Z,73.94
2018-11-02T19:22:12.681Z,73.12
2018-11-02T19:26:55.792Z,73.24
2018-11-02T19:31:38.726Z,72.25
2018-11-02T19:36:21.671Z,72.15
2018-11-02T19:41:05.147Z,73.09
2018-11-02T19:45:48.064Z,72.64
2018-11-02T19:50:31.120Z,73.33
2018-11-02T19:55:14.152Z,73.05
2018-11-02T19:59:59.094Z,71.92
2018-11-02T20:04:42.021Z,73.57
2018-11-02T20:09:25.081Z,73.92
2018-11-02T20:14:08.591Z,75.02
2018-11-02T20:18:52.081Z,74.34
2018-11-02T20:23:35.043Z,73.10
2018-11-02T20:28:17.964Z,74.27
2018-11-02T20:33:02.755Z,73.69
2018-11-02T20:37:45.621Z,73.20
2018-11-02T20:42:29.670Z,72.97
2018-11-02T20:47:12.558Z,72.21
2018-11-02T20:51:55.671Z,73.12
2018-11-02T20:56:38.694Z,71.86
2018-11-02T21:01:22.694Z,72.96
2018-11-02T21:06:05.944Z,72.72
2018-11-02T21:10:50.086Z,72.67
2018-11-02T21:15:32.959Z,72.01
2018-11-02T21:20:18.488Z,72.29
2018-11-02T21:25:01.360Z,72.46
2018-11-02T21:29:44.408Z,73.48
2018-11-02T21:34:27.295Z,72.83
2018-11-02T21:39:11.818Z,72.18
2018-11-02T21:43:54.679Z,74.00
2018-11-02T21:48:37.655Z,73.51
2018-11-02T21:53:20.559Z,73.60
2018-11-02T21:58:03.488Z,73.81
2018-11-02T22:02:48.083Z,73.12
2018-11-02T22:07:30.989Z,72.33
2018-11-02T22:12:15.942Z,72.63
2018-11-02T22:16:58.854Z,72.97
2018-11-02T22:21:41.944Z,73.49
2018-11-02T22:26:24.830Z,73.25
2018-11-02T22:31:07.923Z,72.87
2018-11-02T22:35:50.829Z,73.57
2018-11-02T22:40:33.725Z,73.71
2018-11-02T22:45:16.593Z,72.47
2018-11-02T22:50:00.507Z,72.91
2018-11-02T22:54:43.367Z,73.31
2018-11-02T22:59:29.327Z,72.63
2018-11-02T23:04:12.211Z,72.41
2018-11-02T23:08:55.555Z,71.21
2018-11-02T23:13:39.506Z,71.18
2018-11-02T23:18:22.399Z,71.69
2018-11-02T23:23:06.377Z,72.08
2018-11-02T23:27:49.280Z,71.66
2018-11-02T23:32:33.427Z,71.04
2018-11-02T23:37:16.330Z,70.98
2018-11-02T23:42:01.049Z,71.58
2018-11-02T23:46:43.959Z,71.38
2018-11-02T23:51:26.978Z,72.07
2018-11-02T23:56:09.883Z,72.35
